sensor_id;sensor_type;location;lat;lon;timestamp;P1;durP1;ratioP1;P2;durP2;ratioP2
83562;SDS011;73535;52.500;13.482;2023-11-18T00:01:03;8.95;;;6.20;;
83562;SDS011;73535;52.500;13.482;2023-11-18T00:03:28;8.35;;;5.78;;
83562;SDS011;73535;52.500;13.482;2023-11-18T00:05:54;8.95;;;6.28;;
83562;SDS011;73535;52.500;13.482;2023-11-18T00:08:19;8.18;;;5.75;;
83562;SDS011;73535;52.500;13.482;2023-11-18T00:10:44;7.88;;;6.15;;
83562;SDS011;73535;52.500;13.482;2023-11-18T00:13:10;8.15;;;5.88;;
83562;SDS011;73535;52.500;13.482;2023-11-18T00:15:35;10.68;;;6.20;;
83562;SDS011;73535;52.500;13.482;2023-11-18T00:18:00;9.20;;;6.38;;
83562;SDS011;73535;52.500;13.482;2023-11-18T00:20:26;9.57;;;6.30;;
83562;SDS011;73535;52.500;13.482;2023-11-18T00:22:51;7.22;;;5.63;;
83562;SDS011;73535;52.500;13.482;2023-11-18T00:25:17;8.30;;;5.75;;
83562;SDS011;73535;52.500;13.482;2023-11-18T00:27:43;7.95;;;5.65;;
83562;SDS011;73535;52.500;13.482;2023-11-18T00:30:08;7.20;;;5.57;;
83562;SDS011;73535;52.500;13.482;2023-11-18T00:32:35;7.97;;;6.00;;
83562;SDS011;73535;52.500;13.482;2023-11-18T00:35:01;6.18;;;4.88;;
83562;SDS011;73535;52.500;13.482;2023-11-18T00:37:29;7.30;;;6.00;;
83562;SDS011;73535;52.500;13.482;2023-11-18T00:39:54;9.13;;;6.25;;
83562;SDS011;73535;52.500;13.482;2023-11-18T00:42:19;8.40;;;5.53;;
83562;SDS011;73535;52.500;13.482;2023-11-18T00:44:45;7.28;;;5.47;;
83562;SDS011;73535;52.500;13.482;2023-11-18T00:47:10;7.03;;;5.75;;
83562;SDS011;73535;52.500;13.482;2023-11-18T00:49:35;8.02;;;5.85;;
83562;SDS011;73535;52.500;13.482;2023-11-18T00:52:00;6.65;;;5.25;;
83562;SDS011;73535;52.500;13.482;2023-11-18T00:54:26;6.53;;;5.50;;
83562;SDS011;73535;52.500;13.482;2023-11-18T00:56:51;8.60;;;5.43;;
83562;SDS011;73535;52.500;13.482;2023-11-18T00:59:17;7.65;;;5.45;;
83562;SDS011;73535;52.500;13.482;2023-11-18T01:01:42;6.50;;;5.25;;
83562;SDS011;73535;52.500;13.482;2023-11-18T01:04:07;7.30;;;5.60;;
83562;SDS011;73535;52.500;13.482;2023-11-18T01:06:33;7.20;;;5.38;;
83562;SDS011;73535;52.500;13.482;2023-11-18T01:08:59;8.32;;;5.80;;
83562;SDS011;73535;52.500;13.482;2023-11-18T01:11:24;8.48;;;6.10;;
83562;SDS011;73535;52.500;13.482;2023-11-18T01:13:49;7.65;;;5.60;;
83562;SDS011;73535;52.500;13.482;2023-11-18T01:16:15;9.45;;;5.88;;
83562;SDS011;73535;52.500;13.482;2023-11-18T01:18:41;9.60;;;5.65;;
83562;SDS011;73535;52.500;13.482;2023-11-18T01:21:06;8.90;;;6.00;;
83562;SDS011;73535;52.500;13.482;2023-11-18T01:23:34;9.70;;;5.78;;
83562;SDS011;73535;52.500;13.482;2023-11-18T01:25:59;8.95;;;6.47;;
83562;SDS011;73535;52.500;13.482;2023-11-18T01:28:25;7.70;;;5.50;;
83562;SDS011;73535;52.500;13.482;2023-11-18T01:30:51;7.88;;;5.60;;
83562;SDS011;73535;52.500;13.482;2023-11-18T01:33:16;8.75;;;5.72;;
83562;SDS011;73535;52.500;13.482;2023-11-18T01:35:41;8.40;;;5.47;;
83562;SDS011;73535;52.500;13.482;2023-11-18T01:38:08;8.60;;;5.55;;
83562;SDS011;73535;52.500;13.482;2023-11-18T01:40:33;8.98;;;5.82;;
83562;SDS011;73535;52.500;13.482;2023-11-18T01:42:59;8.13;;;5.57;;
83562;SDS011;73535;52.500;13.482;2023-11-18T01:45:24;8.68;;;6.20;;
83562;SDS011;73535;52.500;13.482;2023-11-18T01:47:51;8.68;;;5.50;;
83562;SDS011;73535;52.500;13.482;2023-11-18T01:50:17;7.15;;;5.32;;
83562;SDS011;73535;52.500;13.482;2023-11-18T01:52:43;9.52;;;5.60;;
83562;SDS011;73535;52.500;13.482;2023-11-18T01:55:10;7.70;;;5.70;;
83562;SDS011;73535;52.500;13.482;2023-11-18T01:57:36;7.97;;;5.55;;
83562;SDS011;73535;52.500;13.482;2023-11-18T02:00:02;8.25;;;5.43;;
83562;SDS011;73535;52.500;13.482;2023-11-18T02:02:31;7.90;;;5.28;;
83562;SDS011;73535;52.500;13.482;2023-11-18T02:04:56;7.45;;;5.22;;
83562;SDS011;73535;52.500;13.482;2023-11-18T02:07:21;7.07;;;4.88;;
83562;SDS011;73535;52.500;13.482;2023-11-18T02:09:47;6.80;;;5.70;;
83562;SDS011;73535;52.500;13.482;2023-11-18T02:15:23;8.93;;;6.30;;
83562;SDS011;73535;52.500;13.482;2023-11-18T02:17:51;8.75;;;5.80;;
83562;SDS011;73535;52.500;13.482;2023-11-18T02:20:18;8.32;;;5.93;;
83562;SDS011;73535;52.500;13.482;2023-11-18T02:22:46;7.65;;;5.47;;
83562;SDS011;73535;52.500;13.482;2023-11-18T02:25:15;7.15;;;5.05;;
83562;SDS011;73535;52.500;13.482;2023-11-18T02:27:42;8.15;;;5.60;;
83562;SDS011;73535;52.500;13.482;2023-11-18T02:30:08;7.07;;;5.38;;
83562;SDS011;73535;52.500;13.482;2023-11-18T02:32:39;6.57;;;5.30;;
83562;SDS011;73535;52.500;13.482;2023-11-18T02:35:15;8.90;;;4.95;;
83562;SDS011;73535;52.500;13.482;2023-11-18T02:37:46;8.02;;;5.78;;
83562;SDS011;73535;52.500;13.482;2023-11-18T02:40:22;8.20;;;5.22;;
83562;SDS011;73535;52.500;13.482;2023-11-18T02:42:55;8.30;;;5.82;;
83562;SDS011;73535;52.500;13.482;2023-11-18T02:45:22;8.73;;;5.63;;
83562;SDS011;73535;52.500;13.482;2023-11-18T02:47:48;7.55;;;5.40;;
83562;SDS011;73535;52.500;13.482;2023-11-18T02:50:14;8.13;;;5.20;;
83562;SDS011;73535;52.500;13.482;2023-11-18T02:52:40;7.65;;;5.32;;
83562;SDS011;73535;52.500;13.482;2023-11-18T02:55:06;7.03;;;5.90;;
83562;SDS011;73535;52.500;13.482;2023-11-18T02:57:32;9.35;;;5.65;;
83562;SDS011;73535;52.500;13.482;2023-11-18T02:59:58;7.10;;;5.28;;
83562;SDS011;73535;52.500;13.482;2023-11-18T03:02:25;8.25;;;5.70;;
83562;SDS011;73535;52.500;13.482;2023-11-18T03:04:52;9.45;;;6.53;;
83562;SDS011;73535;52.500;13.482;2023-11-18T03:07:18;8.10;;;5.80;;
83562;SDS011;73535;52.500;13.482;2023-11-18T03:09:43;7.43;;;5.70;;
83562;SDS011;73535;52.500;13.482;2023-11-18T03:12:08;8.38;;;6.35;;
83562;SDS011;73535;52.500;13.482;2023-11-18T03:14:34;9.15;;;6.20;;
83562;SDS011;73535;52.500;13.482;2023-11-18T03:16:59;7.50;;;5.88;;
83562;SDS011;73535;52.500;13.482;2023-11-18T03:19:26;9.73;;;6.20;;
83562;SDS011;73535;52.500;13.482;2023-11-18T03:21:51;7.13;;;5.45;;
83562;SDS011;73535;52.500;13.482;2023-11-18T03:24:18;7.57;;;5.50;;
83562;SDS011;73535;52.500;13.482;2023-11-18T03:26:43;8.10;;;5.82;;
83562;SDS011;73535;52.500;13.482;2023-11-18T03:29:08;11.13;;;5.63;;
83562;SDS011;73535;52.500;13.482;2023-11-18T03:31:35;8.80;;;5.57;;
83562;SDS011;73535;52.500;13.482;2023-11-18T03:34:01;9.05;;;5.75;;
83562;SDS011;73535;52.500;13.482;2023-11-18T03:36:26;9.18;;;5.88;;
83562;SDS011;73535;52.500;13.482;2023-11-18T03:38:51;7.20;;;5.65;;
83562;SDS011;73535;52.500;13.482;2023-11-18T03:41:16;7.80;;;5.80;;
83562;SDS011;73535;52.500;13.482;2023-11-18T03:43:42;8.05;;;5.90;;
83562;SDS011;73535;52.500;13.482;2023-11-18T03:46:07;6.47;;;5.38;;
83562;SDS011;73535;52.500;13.482;2023-11-18T03:48:32;8.38;;;5.75;;
83562;SDS011;73535;52.500;13.482;2023-11-18T03:50:58;6.10;;;5.13;;
83562;SDS011;73535;52.500;13.482;2023-11-18T03:53:23;7.57;;;5.25;;
83562;SDS011;73535;52.500;13.482;2023-11-18T03:55:48;9.05;;;5.68;;
83562;SDS011;73535;52.500;13.482;2023-11-18T03:58:13;8.48;;;5.30;;
83562;SDS011;73535;52.500;13.482;2023-11-18T04:00:39;6.47;;;4.78;;
83562;SDS011;73535;52.500;13.482;2023-11-18T04:03:04;6.25;;;4.95;;
83562;SDS011;73535;52.500;13.482;2023-11-18T04:05:31;8.18;;;4.78;;
83562;SDS011;73535;52.500;13.482;2023-11-18T04:07:56;7.38;;;4.88;;
83562;SDS011;73535;52.500;13.482;2023-11-18T04:10:22;7.00;;;4.72;;
83562;SDS011;73535;52.500;13.482;2023-11-18T04:12:47;7.53;;;4.65;;
83562;SDS011;73535;52.500;13.482;2023-11-18T04:15:13;7.47;;;5.05;;
83562;SDS011;73535;52.500;13.482;2023-11-18T04:17:39;6.82;;;4.82;;
83562;SDS011;73535;52.500;13.482;2023-11-18T04:20:05;6.65;;;4.90;;
83562;SDS011;73535;52.500;13.482;2023-11-18T04:22:42;7.05;;;4.90;;
83562;SDS011;73535;52.500;13.482;2023-11-18T04:25:08;6.50;;;4.47;;
83562;SDS011;73535;52.500;13.482;2023-11-18T04:27:37;6.45;;;4.70;;
83562;SDS011;73535;52.500;13.482;2023-11-18T04:30:03;6.18;;;4.60;;
83562;SDS011;73535;52.500;13.482;2023-11-18T04:32:28;5.88;;;4.57;;
83562;SDS011;73535;52.500;13.482;2023-11-18T04:34:57;6.50;;;4.35;;
83562;SDS011;73535;52.500;13.482;2023-11-18T04:37:22;7.03;;;4.55;;
83562;SDS011;73535;52.500;13.482;2023-11-18T04:39:47;8.93;;;5.45;;
83562;SDS011;73535;52.500;13.482;2023-11-18T04:42:12;5.85;;;4.45;;
83562;SDS011;73535;52.500;13.482;2023-11-18T04:44:38;7.00;;;4.45;;
83562;SDS011;73535;52.500;13.482;2023-11-18T04:47:03;7.85;;;4.70;;
83562;SDS011;73535;52.500;13.482;2023-11-18T04:49:29;8.85;;;5.05;;
83562;SDS011;73535;52.500;13.482;2023-11-18T04:51:54;6.93;;;4.93;;
83562;SDS011;73535;52.500;13.482;2023-11-18T04:54:19;8.75;;;5.60;;
83562;SDS011;73535;52.500;13.482;2023-11-18T04:56:45;7.22;;;5.10;;
83562;SDS011;73535;52.500;13.482;2023-11-18T04:59:10;8.85;;;5.50;;
83562;SDS011;73535;52.500;13.482;2023-11-18T05:01:35;7.53;;;5.28;;
83562;SDS011;73535;52.500;13.482;2023-11-18T05:04:01;7.85;;;5.47;;
83562;SDS011;73535;52.500;13.482;2023-11-18T05:06:27;7.53;;;5.40;;
83562;SDS011;73535;52.500;13.482;2023-11-18T05:08:52;8.98;;;5.43;;
83562;SDS011;73535;52.500;13.482;2023-11-18T05:11:17;9.82;;;6.15;;
83562;SDS011;73535;52.500;13.482;2023-11-18T05:13:43;8.73;;;5.60;;
83562;SDS011;73535;52.500;13.482;2023-11-18T05:16:08;9.00;;;5.85;;
83562;SDS011;73535;52.500;13.482;2023-11-18T05:18:35;10.30;;;6.25;;
83562;SDS011;73535;52.500;13.482;2023-11-18T05:21:02;8.88;;;5.85;;
83562;SDS011;73535;52.500;13.482;2023-11-18T05:23:29;8.50;;;6.07;;
83562;SDS011;73535;52.500;13.482;2023-11-18T05:25:55;7.60;;;5.38;;
83562;SDS011;73535;52.500;13.482;2023-11-18T05:28:23;9.52;;;5.25;;
83562;SDS011;73535;52.500;13.482;2023-11-18T05:30:49;8.05;;;5.57;;
83562;SDS011;73535;52.500;13.482;2023-11-18T05:33:15;10.60;;;5.85;;
83562;SDS011;73535;52.500;13.482;2023-11-18T05:35:42;9.75;;;5.75;;
83562;SDS011;73535;52.500;13.482;2023-11-18T05:38:13;8.68;;;5.15;;
83562;SDS011;73535;52.500;13.482;2023-11-18T05:40:43;8.07;;;5.97;;
83562;SDS011;73535;52.500;13.482;2023-11-18T05:43:19;8.82;;;6.25;;
83562;SDS011;73535;52.500;13.482;2023-11-18T05:45:46;9.93;;;5.90;;
83562;SDS011;73535;52.500;13.482;2023-11-18T05:48:31;9.15;;;5.95;;
83562;SDS011;73535;52.500;13.482;2023-11-18T05:50:57;12.55;;;6.30;;
83562;SDS011;73535;52.500;13.482;2023-11-18T05:53:22;10.43;;;5.97;;
83562;SDS011;73535;52.500;13.482;2023-11-18T05:55:47;12.52;;;6.95;;
83562;SDS011;73535;52.500;13.482;2023-11-18T05:58:12;10.48;;;6.53;;
83562;SDS011;73535;52.500;13.482;2023-11-18T06:00:38;8.68;;;6.18;;
83562;SDS011;73535;52.500;13.482;2023-11-18T06:03:03;9.93;;;5.93;;
83562;SDS011;73535;52.500;13.482;2023-11-18T06:05:28;9.38;;;6.53;;
83562;SDS011;73535;52.500;13.482;2023-11-18T06:07:56;9.10;;;5.93;;
83562;SDS011;73535;52.500;13.482;2023-11-18T06:10:23;10.20;;;5.78;;
83562;SDS011;73535;52.500;13.482;2023-11-18T06:12:49;8.80;;;6.30;;
83562;SDS011;73535;52.500;13.482;2023-11-18T06:15:15;9.00;;;5.55;;
83562;SDS011;73535;52.500;13.482;2023-11-18T06:17:43;9.60;;;6.63;;
83562;SDS011;73535;52.500;13.482;2023-11-18T06:20:09;9.27;;;5.93;;
83562;SDS011;73535;52.500;13.482;2023-11-18T06:22:35;10.23;;;6.72;;
83562;SDS011;73535;52.500;13.482;2023-11-18T06:25:00;8.93;;;6.22;;
83562;SDS011;73535;52.500;13.482;2023-11-18T06:27:28;12.73;;;6.88;;
83562;SDS011;73535;52.500;13.482;2023-11-18T06:29:54;11.98;;;6.95;;
83562;SDS011;73535;52.500;13.482;2023-11-18T06:32:20;10.13;;;7.00;;
83562;SDS011;73535;52.500;13.482;2023-11-18T06:34:45;9.25;;;6.63;;
83562;SDS011;73535;52.500;13.482;2023-11-18T06:37:10;10.43;;;7.15;;
83562;SDS011;73535;52.500;13.482;2023-11-18T06:39:40;10.02;;;6.80;;
83562;SDS011;73535;52.500;13.482;2023-11-18T06:42:06;9.77;;;6.93;;
83562;SDS011;73535;52.500;13.482;2023-11-18T06:44:36;10.30;;;6.47;;
83562;SDS011;73535;52.500;13.482;2023-11-18T06:47:01;11.73;;;7.95;;
83562;SDS011;73535;52.500;13.482;2023-11-18T06:49:27;11.68;;;7.15;;
83562;SDS011;73535;52.500;13.482;2023-11-18T06:51:54;10.00;;;6.47;;
83562;SDS011;73535;52.500;13.482;2023-11-18T06:54:20;11.52;;;7.32;;
83562;SDS011;73535;52.500;13.482;2023-11-18T06:56:45;9.48;;;6.43;;
83562;SDS011;73535;52.500;13.482;2023-11-18T06:59:11;10.80;;;6.55;;
83562;SDS011;73535;52.500;13.482;2023-11-18T07:01:40;10.55;;;6.80;;
83562;SDS011;73535;52.500;13.482;2023-11-18T07:04:07;10.32;;;6.72;;
83562;SDS011;73535;52.500;13.482;2023-11-18T07:06:35;12.00;;;6.95;;
83562;SDS011;73535;52.500;13.482;2023-11-18T07:09:04;10.82;;;6.88;;
83562;SDS011;73535;52.500;13.482;2023-11-18T07:11:37;10.25;;;6.35;;
83562;SDS011;73535;52.500;13.482;2023-11-18T07:14:02;11.38;;;7.10;;
83562;SDS011;73535;52.500;13.482;2023-11-18T07:16:28;8.65;;;5.13;;
83562;SDS011;73535;52.500;13.482;2023-11-18T07:18:53;7.07;;;4.03;;
83562;SDS011;73535;52.500;13.482;2023-11-18T07:21:18;8.02;;;5.15;;
83562;SDS011;73535;52.500;13.482;2023-11-18T07:23:43;11.15;;;6.95;;
83562;SDS011;73535;52.500;13.482;2023-11-18T07:26:09;10.68;;;7.38;;
83562;SDS011;73535;52.500;13.482;2023-11-18T07:28:38;12.82;;;8.25;;
83562;SDS011;73535;52.500;13.482;2023-11-18T07:31:04;12.65;;;7.70;;
83562;SDS011;73535;52.500;13.482;2023-11-18T07:33:30;11.60;;;8.05;;
83562;SDS011;73535;52.500;13.482;2023-11-18T07:35:57;12.48;;;7.47;;
83562;SDS011;73535;52.500;13.482;2023-11-18T07:38:22;13.73;;;8.32;;
83562;SDS011;73535;52.500;13.482;2023-11-18T07:40:48;14.55;;;8.45;;
83562;SDS011;73535;52.500;13.482;2023-11-18T07:43:14;13.40;;;8.35;;
83562;SDS011;73535;52.500;13.482;2023-11-18T07:45:40;13.20;;;7.68;;
83562;SDS011;73535;52.500;13.482;2023-11-18T07:48:07;18.77;;;10.00;;
83562;SDS011;73535;52.500;13.482;2023-11-18T07:50:36;14.98;;;9.02;;
83562;SDS011;73535;52.500;13.482;2023-11-18T07:53:03;13.25;;;7.85;;
83562;SDS011;73535;52.500;13.482;2023-11-18T07:55:31;12.70;;;8.20;;
83562;SDS011;73535;52.500;13.482;2023-11-18T07:57:59;12.98;;;8.00;;
83562;SDS011;73535;52.500;13.482;2023-11-18T08:00:24;12.32;;;7.95;;
83562;SDS011;73535;52.500;13.482;2023-11-18T08:02:49;10.63;;;6.85;;
83562;SDS011;73535;52.500;13.482;2023-11-18T08:05:16;13.07;;;8.73;;
83562;SDS011;73535;52.500;13.482;2023-11-18T08:07:44;14.45;;;8.80;;
83562;SDS011;73535;52.500;13.482;2023-11-18T08:10:10;13.85;;;8.68;;
83562;SDS011;73535;52.500;13.482;2023-11-18T08:12:38;10.63;;;7.95;;
83562;SDS011;73535;52.500;13.482;2023-11-18T08:15:05;12.15;;;8.23;;
83562;SDS011;73535;52.500;13.482;2023-11-18T08:17:31;16.52;;;9.73;;
83562;SDS011;73535;52.500;13.482;2023-11-18T08:19:56;13.30;;;7.78;;
83562;SDS011;73535;52.500;13.482;2023-11-18T08:22:22;13.57;;;8.55;;
83562;SDS011;73535;52.500;13.482;2023-11-18T08:24:48;13.57;;;8.23;;
83562;SDS011;73535;52.500;13.482;2023-11-18T08:27:13;11.45;;;6.95;;
83562;SDS011;73535;52.500;13.482;2023-11-18T08:29:39;11.52;;;7.75;;
83562;SDS011;73535;52.500;13.482;2023-11-18T08:32:04;17.17;;;8.18;;
83562;SDS011;73535;52.500;13.482;2023-11-18T08:34:31;10.90;;;7.88;;
83562;SDS011;73535;52.500;13.482;2023-11-18T08:36:58;13.05;;;7.47;;
83562;SDS011;73535;52.500;13.482;2023-11-18T08:39:24;13.05;;;6.60;;
83562;SDS011;73535;52.500;13.482;2023-11-18T08:41:51;9.55;;;6.32;;
83562;SDS011;73535;52.500;13.482;2023-11-18T08:44:16;8.93;;;6.15;;
83562;SDS011;73535;52.500;13.482;2023-11-18T08:46:42;9.70;;;5.60;;
83562;SDS011;73535;52.500;13.482;2023-11-18T08:49:07;8.80;;;6.10;;
83562;SDS011;73535;52.500;13.482;2023-11-18T08:51:36;8.40;;;6.03;;
83562;SDS011;73535;52.500;13.482;2023-11-18T08:54:02;9.23;;;5.50;;
83562;SDS011;73535;52.500;13.482;2023-11-18T08:56:42;7.32;;;5.07;;
83562;SDS011;73535;52.500;13.482;2023-11-18T08:59:07;7.55;;;5.18;;
83562;SDS011;73535;52.500;13.482;2023-11-18T09:01:33;8.05;;;5.38;;
83562;SDS011;73535;52.500;13.482;2023-11-18T09:03:59;9.68;;;5.15;;
83562;SDS011;73535;52.500;13.482;2023-11-18T09:06:26;8.82;;;5.82;;
83562;SDS011;73535;52.500;13.482;2023-11-18T09:08:53;10.10;;;6.63;;
83562;SDS011;73535;52.500;13.482;2023-11-18T09:11:20;7.32;;;5.50;;
83562;SDS011;73535;52.500;13.482;2023-11-18T09:13:48;7.43;;;4.82;;
83562;SDS011;73535;52.500;13.482;2023-11-18T09:16:16;7.47;;;5.05;;
83562;SDS011;73535;52.500;13.482;2023-11-18T09:18:42;10.65;;;6.20;;
83562;SDS011;73535;52.500;13.482;2023-11-18T09:21:11;8.60;;;5.90;;
83562;SDS011;73535;52.500;13.482;2023-11-18T09:23:41;8.80;;;5.80;;
83562;SDS011;73535;52.500;13.482;2023-11-18T09:26:07;7.70;;;4.80;;
83562;SDS011;73535;52.500;13.482;2023-11-18T09:28:34;12.50;;;6.45;;
83562;SDS011;73535;52.500;13.482;2023-11-18T09:31:00;7.65;;;5.05;;
83562;SDS011;73535;52.500;13.482;2023-11-18T09:33:28;9.50;;;5.50;;
83562;SDS011;73535;52.500;13.482;2023-11-18T09:35:57;11.05;;;6.90;;
83562;SDS011;73535;52.500;13.482;2023-11-18T09:38:30;8.43;;;5.72;;
83562;SDS011;73535;52.500;13.482;2023-11-18T09:40:57;9.60;;;6.13;;
83562;SDS011;73535;52.500;13.482;2023-11-18T09:43:27;8.05;;;6.00;;
83562;SDS011;73535;52.500;13.482;2023-11-18T09:45:57;9.73;;;6.03;;
83562;SDS011;73535;52.500;13.482;2023-11-18T09:48:29;8.75;;;5.50;;
83562;SDS011;73535;52.500;13.482;2023-11-18T09:50:54;8.98;;;5.82;;
83562;SDS011;73535;52.500;13.482;2023-11-18T09:53:24;11.32;;;6.90;;
83562;SDS011;73535;52.500;13.482;2023-11-18T09:56:02;10.25;;;5.97;;
83562;SDS011;73535;52.500;13.482;2023-11-18T09:58:40;17.08;;;6.43;;
83562;SDS011;73535;52.500;13.482;2023-11-18T10:01:13;10.32;;;5.97;;
83562;SDS011;73535;52.500;13.482;2023-11-18T10:03:43;11.65;;;6.20;;
83562;SDS011;73535;52.500;13.482;2023-11-18T10:06:11;11.18;;;6.47;;
83562;SDS011;73535;52.500;13.482;2023-11-18T10:08:39;11.40;;;6.90;;
83562;SDS011;73535;52.500;13.482;2023-11-18T10:11:11;8.60;;;5.18;;
83562;SDS011;73535;52.500;13.482;2023-11-18T10:13:38;8.10;;;5.97;;
83562;SDS011;73535;52.500;13.482;2023-11-18T10:16:08;8.95;;;6.22;;
83562;SDS011;73535;52.500;13.482;2023-11-18T10:18:34;9.25;;;5.82;;
83562;SDS011;73535;52.500;13.482;2023-11-18T10:21:02;10.32;;;6.50;;
83562;SDS011;73535;52.500;13.482;2023-11-18T10:23:36;8.20;;;4.38;;
83562;SDS011;73535;52.500;13.482;2023-11-18T10:26:02;7.00;;;4.90;;
83562;SDS011;73535;52.500;13.482;2023-11-18T10:28:35;7.10;;;5.03;;
83562;SDS011;73535;52.500;13.482;2023-11-18T10:31:03;8.32;;;4.97;;
83562;SDS011;73535;52.500;13.482;2023-11-18T10:33:30;7.10;;;4.70;;
83562;SDS011;73535;52.500;13.482;2023-11-18T10:35:57;7.22;;;4.80;;
83562;SDS011;73535;52.500;13.482;2023-11-18T10:38:23;7.85;;;5.13;;
83562;SDS011;73535;52.500;13.482;2023-11-18T10:40:52;7.35;;;5.00;;
83562;SDS011;73535;52.500;13.482;2023-11-18T10:43:20;7.55;;;5.28;;
83562;SDS011;73535;52.500;13.482;2023-11-18T10:46:10;8.48;;;5.40;;
83562;SDS011;73535;52.500;13.482;2023-11-18T10:48:40;7.20;;;5.40;;
83562;SDS011;73535;52.500;13.482;2023-11-18T10:51:13;9.15;;;5.72;;
83562;SDS011;73535;52.500;13.482;2023-11-18T10:53:41;7.45;;;4.78;;
83562;SDS011;73535;52.500;13.482;2023-11-18T10:56:18;8.27;;;5.35;;
83562;SDS011;73535;52.500;13.482;2023-11-18T11:01:33;7.97;;;5.00;;
83562;SDS011;73535;52.500;13.482;2023-11-18T11:04:04;6.57;;;5.03;;
83562;SDS011;73535;52.500;13.482;2023-11-18T11:08:57;8.10;;;5.38;;
83562;SDS011;73535;52.500;13.482;2023-11-18T11:11:25;8.25;;;5.50;;
83562;SDS011;73535;52.500;13.482;2023-11-18T11:14:03;9.93;;;6.45;;
83562;SDS011;73535;52.500;13.482;2023-11-18T11:19:08;10.13;;;6.47;;
83562;SDS011;73535;52.500;13.482;2023-11-18T11:21:48;11.60;;;7.40;;
83562;SDS011;73535;52.500;13.482;2023-11-18T11:24:20;11.43;;;6.85;;
83562;SDS011;73535;52.500;13.482;2023-11-18T11:29:36;10.43;;;6.50;;
83562;SDS011;73535;52.500;13.482;2023-11-18T11:32:35;10.02;;;6.15;;
83562;SDS011;73535;52.500;13.482;2023-11-18T11:35:03;21.45;;;13.15;;
83562;SDS011;73535;52.500;13.482;2023-11-18T11:37:41;10.25;;;5.80;;
83562;SDS011;73535;52.500;13.482;2023-11-18T11:40:08;12.27;;;6.38;;
83562;SDS011;73535;52.500;13.482;2023-11-18T11:42:34;9.07;;;5.70;;
83562;SDS011;73535;52.500;13.482;2023-11-18T11:45:00;9.70;;;5.78;;
83562;SDS011;73535;52.500;13.482;2023-11-18T11:47:27;7.90;;;5.28;;
83562;SDS011;73535;52.500;13.482;2023-11-18T11:50:04;8.75;;;5.90;;
83562;SDS011;73535;52.500;13.482;2023-11-18T11:52:46;9.27;;;5.93;;
83562;SDS011;73535;52.500;13.482;2023-11-18T11:55:19;7.82;;;5.45;;
83562;SDS011;73535;52.500;13.482;2023-11-18T11:57:53;7.65;;;5.03;;
83562;SDS011;73535;52.500;13.482;2023-11-18T12:00:23;8.77;;;5.75;;
83562;SDS011;73535;52.500;13.482;2023-11-18T12:02:51;7.68;;;5.15;;
83562;SDS011;73535;52.500;13.482;2023-11-18T12:05:19;7.18;;;4.32;;
83562;SDS011;73535;52.500;13.482;2023-11-18T12:07:50;7.88;;;5.40;;
83562;SDS011;73535;52.500;13.482;2023-11-18T12:10:16;7.57;;;5.07;;
83562;SDS011;73535;52.500;13.482;2023-11-18T12:12:45;6.80;;;5.13;;
83562;SDS011;73535;52.500;13.482;2023-11-18T12:15:10;9.70;;;5.80;;
83562;SDS011;73535;52.500;13.482;2023-11-18T12:20:39;11.23;;;7.90;;
83562;SDS011;73535;52.500;13.482;2023-11-18T12:23:12;12.02;;;7.65;;
83562;SDS011;73535;52.500;13.482;2023-11-18T12:25:41;12.63;;;7.75;;
83562;SDS011;73535;52.500;13.482;2023-11-18T12:28:07;13.10;;;8.93;;
83562;SDS011;73535;52.500;13.482;2023-11-18T12:30:37;13.23;;;8.48;;
83562;SDS011;73535;52.500;13.482;2023-11-18T12:33:06;12.80;;;7.88;;
83562;SDS011;73535;52.500;13.482;2023-11-18T12:36:23;10.65;;;7.43;;
83562;SDS011;73535;52.500;13.482;2023-11-18T12:41:39;12.77;;;7.63;;
83562;SDS011;73535;52.500;13.482;2023-11-18T12:49:43;9.55;;;5.50;;
83562;SDS011;73535;52.500;13.482;2023-11-18T12:52:10;7.45;;;5.45;;
83562;SDS011;73535;52.500;13.482;2023-11-18T12:54:40;6.80;;;4.50;;
83562;SDS011;73535;52.500;13.482;2023-11-18T12:57:09;7.18;;;4.32;;
83562;SDS011;73535;52.500;13.482;2023-11-18T12:59:38;7.57;;;4.38;;
83562;SDS011;73535;52.500;13.482;2023-11-18T13:02:08;6.15;;;4.38;;
83562;SDS011;73535;52.500;13.482;2023-11-18T13:04:38;8.57;;;4.70;;
83562;SDS011;73535;52.500;13.482;2023-11-18T13:07:05;5.80;;;3.75;;
83562;SDS011;73535;52.500;13.482;2023-11-18T13:09:33;6.95;;;4.55;;
83562;SDS011;73535;52.500;13.482;2023-11-18T13:12:01;7.40;;;5.47;;
83562;SDS011;73535;52.500;13.482;2023-11-18T13:14:31;9.40;;;5.78;;
83562;SDS011;73535;52.500;13.482;2023-11-18T13:17:01;9.05;;;6.07;;
83562;SDS011;73535;52.500;13.482;2023-11-18T13:19:30;8.73;;;6.13;;
83562;SDS011;73535;52.500;13.482;2023-11-18T13:22:00;9.45;;;5.53;;
83562;SDS011;73535;52.500;13.482;2023-11-18T13:24:28;14.60;;;8.05;;
83562;SDS011;73535;52.500;13.482;2023-11-18T13:26:55;7.82;;;5.47;;
83562;SDS011;73535;52.500;13.482;2023-11-18T13:29:22;8.43;;;6.47;;
83562;SDS011;73535;52.500;13.482;2023-11-18T13:31:48;8.45;;;5.32;;
83562;SDS011;73535;52.500;13.482;2023-11-18T13:34:15;8.05;;;6.03;;
83562;SDS011;73535;52.500;13.482;2023-11-18T13:36:42;7.03;;;4.80;;
83562;SDS011;73535;52.500;13.482;2023-11-18T13:41:41;6.82;;;4.43;;
83562;SDS011;73535;52.500;13.482;2023-11-18T13:44:06;5.13;;;3.85;;
83562;SDS011;73535;52.500;13.482;2023-11-18T13:46:32;4.32;;;3.20;;
83562;SDS011;73535;52.500;13.482;2023-11-18T13:48:57;5.07;;;3.20;;
83562;SDS011;73535;52.500;13.482;2023-11-18T13:53:49;6.32;;;3.75;;
83562;SDS011;73535;52.500;13.482;2023-11-18T13:56:18;6.07;;;4.03;;
83562;SDS011;73535;52.500;13.482;2023-11-18T13:58:44;7.38;;;3.92;;
83562;SDS011;73535;52.500;13.482;2023-11-18T14:01:10;5.82;;;3.75;;
83562;SDS011;73535;52.500;13.482;2023-11-18T14:03:37;6.90;;;4.38;;
83562;SDS011;73535;52.500;13.482;2023-11-18T14:06:05;7.40;;;4.40;;
83562;SDS011;73535;52.500;13.482;2023-11-18T14:08:31;7.47;;;5.10;;
83562;SDS011;73535;52.500;13.482;2023-11-18T14:10:56;7.78;;;5.35;;
83562;SDS011;73535;52.500;13.482;2023-11-18T14:13:21;8.20;;;5.53;;
83562;SDS011;73535;52.500;13.482;2023-11-18T14:15:47;9.82;;;5.93;;
83562;SDS011;73535;52.500;13.482;2023-11-18T14:18:14;8.80;;;5.45;;
83562;SDS011;73535;52.500;13.482;2023-11-18T14:20:39;11.07;;;5.85;;
83562;SDS011;73535;52.500;13.482;2023-11-18T14:23:05;10.23;;;6.03;;
83562;SDS011;73535;52.500;13.482;2023-11-18T14:25:33;10.90;;;6.53;;
83562;SDS011;73535;52.500;13.482;2023-11-18T14:27:59;10.02;;;6.18;;
83562;SDS011;73535;52.500;13.482;2023-11-18T14:30:25;11.98;;;7.25;;
83562;SDS011;73535;52.500;13.482;2023-11-18T14:32:53;9.82;;;5.78;;
83562;SDS011;73535;52.500;13.482;2023-11-18T14:35:19;9.80;;;6.70;;
83562;SDS011;73535;52.500;13.482;2023-11-18T14:37:45;10.77;;;6.65;;
83562;SDS011;73535;52.500;13.482;2023-11-18T14:40:11;10.05;;;6.18;;
83562;SDS011;73535;52.500;13.482;2023-11-18T14:42:41;9.32;;;6.18;;
83562;SDS011;73535;52.500;13.482;2023-11-18T14:45:08;10.75;;;6.72;;
83562;SDS011;73535;52.500;13.482;2023-11-18T14:47:34;10.88;;;6.88;;
83562;SDS011;73535;52.500;13.482;2023-11-18T14:50:00;11.20;;;6.45;;
83562;SDS011;73535;52.500;13.482;2023-11-18T14:52:25;10.13;;;6.32;;
83562;SDS011;73535;52.500;13.482;2023-11-18T14:54:50;11.20;;;6.72;;
83562;SDS011;73535;52.500;13.482;2023-11-18T14:57:16;11.88;;;6.60;;
83562;SDS011;73535;52.500;13.482;2023-11-18T14:59:41;12.48;;;7.25;;
83562;SDS011;73535;52.500;13.482;2023-11-18T15:02:06;11.90;;;6.90;;